createdAt,value
2023-09-05T00:01:47.242Z,18.70
2023-09-05T00:04:49.796Z,18.80
2023-09-05T00:07:51.637Z,18.80
2023-09-05T00:10:53.442Z,18.70
2023-09-05T00:13:55.253Z,18.70
2023-09-05T00:16:57.399Z,18.50
2023-09-05T00:19:59.510Z,18.50
2023-09-05T00:23:01.301Z,18.50
2023-09-05T00:26:03.126Z,18.40
2023-09-05T00:29:04.957Z,18.40
2023-09-05T00:32:07.520Z,18.30
2023-09-05T00:35:09.437Z,18.40
2023-09-05T00:38:11.239Z,18.40
2023-09-05T00:41:13.151Z,18.30
2023-09-05T00:44:15.237Z,18.10
2023-09-05T00:47:17.821Z,18.10
2023-09-05T00:50:21.367Z,18.10
2023-09-05T00:53:27.354Z,18.10
2023-09-05T00:56:29.882Z,18.10
2023-09-05T00:59:32.609Z,18.10
2023-09-05T01:02:35.398Z,18.10
2023-09-05T01:05:39.510Z,18.00
2023-09-05T01:09:34.215Z,18.00
2023-09-05T01:12:36.229Z,17.90
2023-09-05T01:15:38.262Z,17.90
2023-09-05T01:18:41.434Z,17.90
2023-09-05T01:22:00.085Z,17.90
2023-09-05T01:25:03.315Z,17.70
2023-09-05T01:28:06.393Z,17.90
2023-09-05T01:31:11.761Z,17.60
2023-09-05T01:34:13.815Z,17.80
2023-09-05T01:37:16.691Z,17.70
2023-09-05T01:40:18.901Z,17.80
2023-09-05T01:43:20.928Z,17.90
2023-09-05T01:46:22.751Z,17.80
2023-09-05T01:49:24.855Z,17.70
2023-09-05T01:52:26.751Z,17.70
2023-09-05T01:55:28.639Z,17.70
2023-09-05T01:58:30.526Z,17.60
2023-09-05T02:01:35.127Z,17.60
2023-09-05T02:04:37.024Z,17.40
2023-09-05T02:07:38.933Z,17.40
2023-09-05T02:10:40.741Z,17.50
2023-09-05T02:13:42.640Z,17.50
2023-09-05T02:16:44.815Z,17.30
2023-09-05T02:19:46.836Z,17.30
2023-09-05T02:22:48.638Z,17.40
2023-09-05T02:26:02.416Z,17.40
2023-09-05T02:29:04.527Z,17.20
2023-09-05T02:32:06.667Z,17.30
2023-09-05T02:35:09.720Z,17.40
2023-09-05T02:38:14.301Z,17.30
2023-09-05T02:41:17.757Z,17.40
2023-09-05T02:44:19.882Z,17.30
2023-09-05T02:47:22.457Z,17.40
2023-09-05T02:50:24.255Z,17.30
2023-09-05T02:53:26.549Z,17.10
2023-09-05T02:56:28.662Z,17.10
2023-09-05T02:59:30.530Z,17.20
2023-09-05T03:02:32.963Z,17.40
2023-09-05T03:05:34.946Z,17.30
2023-09-05T03:08:38.023Z,17.20
2023-09-05T03:11:40.997Z,17.30
2023-09-05T03:14:42.893Z,17.30
2023-09-05T03:17:45.352Z,17.30
2023-09-05T03:20:47.881Z,17.00
2023-09-05T03:23:49.773Z,17.00
2023-09-05T03:26:51.628Z,17.00
2023-09-05T03:29:53.797Z,16.90
2023-09-05T03:32:56.288Z,16.90
2023-09-05T03:35:58.125Z,17.00
2023-09-05T03:39:00.090Z,16.80
2023-09-05T03:42:01.922Z,16.90
2023-09-05T03:45:03.977Z,16.90
2023-09-05T03:48:06.632Z,16.80
2023-09-05T03:51:09.097Z,16.90
2023-09-05T03:54:13.963Z,16.80
2023-09-05T03:57:17.382Z,16.70
2023-09-05T04:00:19.611Z,16.70
2023-09-05T04:03:21.998Z,16.60
2023-09-05T04:06:24.165Z,16.70
2023-09-05T04:09:26.128Z,16.60
2023-09-05T04:12:28.116Z,16.50
2023-09-05T04:15:29.960Z,16.30
2023-09-05T04:18:32.013Z,16.40
2023-09-05T04:21:34.052Z,16.40
2023-09-05T04:24:35.868Z,16.50
2023-09-05T04:27:37.891Z,16.30
2023-09-05T04:30:39.835Z,16.20
2023-09-05T04:33:42.230Z,16.20
2023-09-05T04:36:44.124Z,16.00
2023-09-05T04:39:46.270Z,16.00
2023-09-05T04:42:48.158Z,16.00
2023-09-05T04:45:55.312Z,16.00
2023-09-05T04:48:57.089Z,16.00
2023-09-05T04:51:58.919Z,16.10
2023-09-05T04:55:01.432Z,16.10
2023-09-05T04:58:03.540Z,16.20
2023-09-05T05:01:05.962Z,16.10
2023-09-05T05:04:22.038Z,16.10
2023-09-05T05:07:30.186Z,16.20
2023-09-05T05:14:45.568Z,16.30
2023-09-05T05:18:00.429Z,16.30
2023-09-05T05:24:12.541Z,16.10
2023-09-05T05:27:14.959Z,16.30
2023-09-05T05:30:17.223Z,16.30
2023-09-05T05:33:19.292Z,16.30
2023-09-05T05:39:50.415Z,16.20
2023-09-05T05:43:01.717Z,16.30
2023-09-05T05:46:13.454Z,16.30
2023-09-05T05:49:15.531Z,16.30
2023-09-05T05:52:32.388Z,16.30
2023-09-05T05:55:43.523Z,16.30
2023-09-05T05:58:47.845Z,16.40
2023-09-05T06:01:52.010Z,16.50
2023-09-05T06:05:03.208Z,16.60
2023-09-05T06:08:05.511Z,16.70
2023-09-05T06:11:12.676Z,16.60
2023-09-05T06:14:15.922Z,16.80
2023-09-05T06:17:17.869Z,16.70
2023-09-05T06:20:20.470Z,16.70
2023-09-05T06:23:22.346Z,16.90
2023-09-05T06:26:33.648Z,17.00
2023-09-05T06:29:35.450Z,17.00
2023-09-05T06:32:37.433Z,17.20
2023-09-05T06:35:39.990Z,17.30
2023-09-05T06:38:42.960Z,17.40
2023-09-05T06:41:44.756Z,17.40
2023-09-05T06:44:46.860Z,17.40
2023-09-05T06:47:53.449Z,17.40
2023-09-05T06:50:55.368Z,17.40
2023-09-05T06:54:04.606Z,17.50
2023-09-05T06:57:09.277Z,17.50
2023-09-05T07:00:11.849Z,17.60
2023-09-05T07:03:14.633Z,17.70
2023-09-05T07:06:19.640Z,17.80
2023-09-05T07:09:22.152Z,17.80
2023-09-05T07:12:25.392Z,17.90
2023-09-05T07:15:27.214Z,18.00
2023-09-05T07:18:29.208Z,18.10
2023-09-05T07:21:31.351Z,18.30
2023-09-05T07:24:33.215Z,18.40
2023-09-05T07:27:35.125Z,18.60
2023-09-05T07:30:37.605Z,18.70
2023-09-05T07:33:39.506Z,18.80
2023-09-05T07:36:41.641Z,19.00
2023-09-05T07:39:51.020Z,19.10
2023-09-05T07:42:53.071Z,19.30
2023-09-05T07:46:05.627Z,19.40
2023-09-05T07:49:07.420Z,19.60
2023-09-05T07:52:10.097Z,19.70
2023-09-05T07:55:12.092Z,19.90
2023-09-05T07:58:13.969Z,19.90
2023-09-05T08:01:15.805Z,20.00
2023-09-05T08:04:17.837Z,20.20
2023-09-05T08:07:32.090Z,20.40
2023-09-05T08:10:35.200Z,20.50
2023-09-05T08:13:37.427Z,20.60
2023-09-05T08:20:04.846Z,20.80
2023-09-05T08:26:37.444Z,21.00
2023-09-05T08:29:39.668Z,21.20
2023-09-05T08:32:41.955Z,21.30
2023-09-05T08:35:47.143Z,21.40
2023-09-05T08:38:48.967Z,21.60
2023-09-05T08:46:24.304Z,21.80
2023-09-05T08:49:31.089Z,21.90
2023-09-05T08:52:41.877Z,22.00
2023-09-05T08:55:53.472Z,22.10
2023-09-05T08:59:14.859Z,22.30
2023-09-05T09:02:32.361Z,22.30
2023-09-05T09:05:36.286Z,22.40
2023-09-05T09:08:45.582Z,22.40
2023-09-05T09:12:01.225Z,22.60
2023-09-05T09:18:22.417Z,22.80
2023-09-05T09:21:29.987Z,22.90
2023-09-05T09:24:40.837Z,23.10
2023-09-05T09:27:43.331Z,23.20
2023-09-05T09:30:49.283Z,23.30
2023-09-05T09:34:07.916Z,23.30
2023-09-05T09:37:10.596Z,23.40
2023-09-05T09:40:18.905Z,23.50
2023-09-05T09:43:20.979Z,23.50
2023-09-05T09:46:23.880Z,23.60
2023-09-05T09:49:28.080Z,23.70
2023-09-05T09:52:36.465Z,23.80
2023-09-05T09:55:44.705Z,23.90
2023-09-05T09:58:49.549Z,24.30
2023-09-05T10:01:52.483Z,24.70
2023-09-05T10:05:05.326Z,24.80
2023-09-05T10:08:07.169Z,24.70
2023-09-05T10:11:11.436Z,24.80
2023-09-05T10:14:14.013Z,25.00
2023-09-05T10:17:18.023Z,25.20
2023-09-05T10:20:32.746Z,25.30
2023-09-05T10:23:38.121Z,25.30
2023-09-05T10:26:40.216Z,25.40
2023-09-05T10:29:49.087Z,25.50
2023-09-05T10:32:54.559Z,25.40
2023-09-05T10:35:57.571Z,25.40
2023-09-05T10:38:59.530Z,25.50
2023-09-05T10:42:05.881Z,25.50
2023-09-05T10:45:38.570Z,25.50
2023-09-05T10:48:42.330Z,25.50
2023-09-05T10:52:21.243Z,25.70
2023-09-05T10:55:33.728Z,25.80
2023-09-05T10:58:49.321Z,25.80
2023-09-05T11:01:55.652Z,25.90
2023-09-05T11:04:57.591Z,25.90
2023-09-05T11:08:00.148Z,25.90
2023-09-05T11:11:02.170Z,26.00
2023-09-05T11:14:04.950Z,26.10
2023-09-05T11:17:06.926Z,26.10
2023-09-05T11:20:10.112Z,26.20
2023-09-05T11:23:27.426Z,26.30
2023-09-05T11:26:29.984Z,26.30
2023-09-05T11:29:34.542Z,26.40
2023-09-05T11:32:40.926Z,26.40
2023-09-05T11:35:50.772Z,26.50
2023-09-05T11:38:59.332Z,26.60
2023-09-05T11:42:01.524Z,26.60
2023-09-05T11:45:03.630Z,26.70
2023-09-05T11:48:08.604Z,26.90
2023-09-05T11:51:18.242Z,27.00
2023-09-05T11:54:23.518Z,27.00
2023-09-05T11:57:25.545Z,27.20
2023-09-05T12:00:36.450Z,27.40
2023-09-05T12:03:39.603Z,27.70
2023-09-05T12:06:41.439Z,27.70
2023-09-05T12:09:48.683Z,27.60
2023-09-05T12:13:09.934Z,27.70
2023-09-05T12:16:20.830Z,27.70
2023-09-05T12:19:28.895Z,27.80
2023-09-05T12:22:32.245Z,28.00
2023-09-05T12:25:46.602Z,28.10
2023-09-05T12:29:04.570Z,28.20
2023-09-05T12:32:06.970Z,28.20
2023-09-05T12:35:09.085Z,28.10
2023-09-05T12:38:11.600Z,28.10
2023-09-05T12:41:14.599Z,28.10
2023-09-05T12:44:19.531Z,28.00
2023-09-05T12:47:21.399Z,27.90
2023-09-05T12:50:31.636Z,27.90
2023-09-05T12:56:36.594Z,28.20
2023-09-05T12:59:39.214Z,28.20
2023-09-05T13:02:42.091Z,28.30
2023-09-05T13:05:53.598Z,28.20
2023-09-05T13:08:55.434Z,28.20
2023-09-05T13:12:00.508Z,28.20
2023-09-05T13:15:03.083Z,28.20
2023-09-05T13:18:05.374Z,28.10
2023-09-05T13:21:22.995Z,28.10
2023-09-05T13:24:26.077Z,28.10
2023-09-05T13:27:31.185Z,28.10
2023-09-05T13:30:42.078Z,28.10
2023-09-05T13:33:43.938Z,28.00
2023-09-05T13:36:46.015Z,27.90
2023-09-05T13:39:48.533Z,27.90
2023-09-05T13:42:50.571Z,27.80
2023-09-05T13:45:52.649Z,27.80
2023-09-05T13:48:54.660Z,27.80
2023-09-05T13:51:56.826Z,27.80
2023-09-05T13:54:58.892Z,27.90
2023-09-05T13:58:01.569Z,27.90
2023-09-05T14:01:03.462Z,28.00
2023-09-05T14:04:10.210Z,28.00
2023-09-05T14:07:13.540Z,28.10
2023-09-05T14:10:16.966Z,28.10
2023-09-05T14:13:19.496Z,28.00
2023-09-05T14:16:21.414Z,28.10
2023-09-05T14:19:25.490Z,28.20
2023-09-05T14:22:27.881Z,28.40
2023-09-05T14:25:29.853Z,28.60
2023-09-05T14:28:32.054Z,28.70
2023-09-05T14:31:34.055Z,28.50
2023-09-05T14:34:35.934Z,28.50
2023-09-05T14:37:37.822Z,28.60
2023-09-05T14:40:40.222Z,28.70
2023-09-05T14:43:42.127Z,28.50
2023-09-05T14:46:47.030Z,28.50
2023-09-05T14:49:48.956Z,28.40
2023-09-05T14:52:57.070Z,28.40
2023-09-05T14:55:58.862Z,28.40
2023-09-05T14:59:00.744Z,28.40
2023-09-05T15:02:06.019Z,28.40
2023-09-05T15:05:09.845Z,28.40
2023-09-05T15:08:12.206Z,28.30
2023-09-05T15:11:14.125Z,28.20
2023-09-05T15:14:15.942Z,28.30
2023-09-05T15:17:17.883Z,28.30
2023-09-05T15:20:19.881Z,28.30
2023-09-05T15:23:21.692Z,28.40
2023-09-05T15:26:24.003Z,28.40
2023-09-05T15:29:32.170Z,28.30
2023-09-05T15:32:33.930Z,28.20
2023-09-05T15:35:36.027Z,28.20
2023-09-05T15:38:37.998Z,28.10
2023-09-05T15:41:40.092Z,28.00
2023-09-05T15:44:41.848Z,28.00
2023-09-05T15:47:44.785Z,27.90
2023-09-05T15:50:47.144Z,27.80
2023-09-05T15:53:49.088Z,27.80
2023-09-05T15:56:51.964Z,27.80
2023-09-05T15:59:54.136Z,27.90
2023-09-05T16:03:00.011Z,27.90
2023-09-05T16:06:02.961Z,28.00
2023-09-05T16:09:04.950Z,28.00
2023-09-05T16:12:07.580Z,27.90
2023-09-05T16:15:10.076Z,27.90
2023-09-05T16:18:12.151Z,27.80
2023-09-05T16:21:14.116Z,27.80
2023-09-05T16:24:16.235Z,27.70
2023-09-05T16:27:18.566Z,27.70
2023-09-05T16:30:20.765Z,27.60
2023-09-05T16:33:26.240Z,27.50
2023-09-05T16:36:28.355Z,27.50
2023-09-05T16:39:32.120Z,27.40
2023-09-05T16:42:34.049Z,27.50
2023-09-05T16:45:36.175Z,27.60
2023-09-05T16:48:38.203Z,27.60
2023-09-05T16:51:40.640Z,27.70
2023-09-05T16:54:43.777Z,27.70
2023-09-05T16:57:46.806Z,27.60
2023-09-05T17:00:49.353Z,27.70
2023-09-05T17:03:52.400Z,27.70
2023-09-05T17:06:55.746Z,27.60
2023-09-05T17:09:57.550Z,27.60
2023-09-05T17:13:00.773Z,27.50
2023-09-05T17:16:02.504Z,27.30
2023-09-05T17:19:04.627Z,27.30
2023-09-05T17:22:06.480Z,27.20
2023-09-05T17:25:08.777Z,27.20
2023-09-05T17:28:10.786Z,27.20
2023-09-05T17:31:12.755Z,27.10
2023-09-05T17:34:15.969Z,27.00
2023-09-05T17:37:17.751Z,26.90
2023-09-05T17:40:19.654Z,26.90
2023-09-05T17:43:21.536Z,26.80
2023-09-05T17:46:23.557Z,26.90
2023-09-05T17:49:25.682Z,26.80
2023-09-05T17:52:27.469Z,26.70
2023-09-05T17:55:29.881Z,26.70
2023-09-05T17:58:31.739Z,26.60
2023-09-05T18:01:33.738Z,26.60
2023-09-05T18:04:36.254Z,26.50
2023-09-05T18:07:42.463Z,26.40
2023-09-05T18:10:45.875Z,26.30
2023-09-05T18:13:47.706Z,26.30
2023-09-05T18:16:58.752Z,26.20
2023-09-05T18:20:00.813Z,26.10
2023-09-05T18:23:03.185Z,26.00
2023-09-05T18:26:10.315Z,25.90
2023-09-05T18:29:12.937Z,25.90
2023-09-05T18:32:21.422Z,25.80
2023-09-05T18:35:23.312Z,25.70
2023-09-05T18:38:25.428Z,25.60
2023-09-05T18:41:27.571Z,25.50
2023-09-05T18:44:29.564Z,25.50
2023-09-05T18:47:31.450Z,25.40
2023-09-05T18:50:33.802Z,25.30
2023-09-05T18:53:37.462Z,25.20
2023-09-05T18:56:39.264Z,25.00
2023-09-05T18:59:41.453Z,24.90
2023-09-05T19:02:43.705Z,24.80
2023-09-05T19:05:46.897Z,24.70
2023-09-05T19:08:48.840Z,24.80
2023-09-05T19:11:52.860Z,24.70
2023-09-05T19:14:54.951Z,24.50
2023-09-05T19:17:57.408Z,24.50
2023-09-05T19:21:04.912Z,24.50
2023-09-05T19:24:07.153Z,24.40
2023-09-05T19:27:11.630Z,24.20
2023-09-05T19:30:13.654Z,24.10
2023-09-05T19:33:15.659Z,24.10
2023-09-05T19:36:17.918Z,24.00
2023-09-05T19:39:20.123Z,23.90
2023-09-05T19:42:23.370Z,23.80
2023-09-05T19:45:25.337Z,23.90
2023-09-05T19:48:28.859Z,23.70
2023-09-05T19:51:31.162Z,23.70
2023-09-05T19:54:33.032Z,23.50
2023-09-05T19:57:40.344Z,23.40
2023-09-05T20:00:42.624Z,23.40
2023-09-05T20:03:44.675Z,23.40
2023-09-05T20:06:46.547Z,23.50
2023-09-05T20:09:48.567Z,23.40
2023-09-05T20:12:50.695Z,23.40
2023-09-05T20:15:54.555Z,23.10
2023-09-05T20:18:56.435Z,23.00
2023-09-05T20:22:00.119Z,22.90
2023-09-05T20:25:03.823Z,23.00
2023-09-05T20:28:05.909Z,22.90
2023-09-05T20:31:07.734Z,22.90
2023-09-05T20:34:13.288Z,22.90
2023-09-05T20:37:15.553Z,22.80
2023-09-05T20:40:17.479Z,22.80
2023-09-05T20:43:19.316Z,22.80
2023-09-05T20:46:21.356Z,22.80
2023-09-05T20:49:23.694Z,22.70
2023-09-05T20:52:25.984Z,22.70
2023-09-05T20:55:27.777Z,22.50
2023-09-05T20:58:31.243Z,22.50
2023-09-05T21:01:36.175Z,22.40
2023-09-05T21:04:38.051Z,22.40
2023-09-05T21:07:40.987Z,22.30
2023-09-05T21:10:43.086Z,22.40
2023-09-05T21:13:45.075Z,22.40
2023-09-05T21:16:46.958Z,22.40
2023-09-05T21:19:48.999Z,22.30
2023-09-05T21:22:51.010Z,22.30
2023-09-05T21:25:53.114Z,22.20
2023-09-05T21:28:55.034Z,22.20
2023-09-05T21:31:56.833Z,22.30
2023-09-05T21:34:58.768Z,22.30
2023-09-05T21:38:01.480Z,22.30
2023-09-05T21:41:03.419Z,22.10
2023-09-05T21:44:05.603Z,21.90
2023-09-05T21:47:10.436Z,21.80
2023-09-05T21:50:12.531Z,21.80
2023-09-05T21:53:14.422Z,21.90
2023-09-05T21:56:16.396Z,21.70
2023-09-05T21:59:18.175Z,21.70
2023-09-05T22:02:20.402Z,21.60
2023-09-05T22:05:22.871Z,21.50
2023-09-05T22:08:25.936Z,21.40
2023-09-05T22:11:28.404Z,21.40
2023-09-05T22:14:30.186Z,21.30
2023-09-05T22:17:32.317Z,21.30
2023-09-05T22:20:44.560Z,21.30
2023-09-05T22:23:50.918Z,21.10
2023-09-05T22:26:54.153Z,21.10
2023-09-05T22:29:56.560Z,21.20
2023-09-05T22:32:58.474Z,21.30
2023-09-05T22:36:00.928Z,21.30
2023-09-05T22:39:03.537Z,21.20
2023-09-05T22:42:05.632Z,21.20
2023-09-05T22:45:09.195Z,21.10
2023-09-05T22:48:11.012Z,21.20
2023-09-05T22:51:13.256Z,21.10
2023-09-05T22:54:15.769Z,21.00
2023-09-05T22:57:17.805Z,20.90
2023-09-05T23:00:20.344Z,20.80
2023-09-05T23:03:22.343Z,20.70
2023-09-05T23:06:24.731Z,20.80
2023-09-05T23:09:27.302Z,20.80
2023-09-05T23:12:29.607Z,20.80
2023-09-05T23:15:31.495Z,20.80
2023-09-05T23:18:38.359Z,20.70
2023-09-05T23:21:43.471Z,20.70
2023-09-05T23:24:45.425Z,20.60
2023-09-05T23:27:51.132Z,20.60
2023-09-05T23:30:53.774Z,20.50
2023-09-05T23:33:58.459Z,20.50
2023-09-05T23:37:00.446Z,20.20
2023-09-05T23:40:07.337Z,20.20
2023-09-05T23:43:09.320Z,20.20
2023-09-05T23:46:11.190Z,20.10
2023-09-05T23:49:13.777Z,20.10
2023-09-05T23:52:15.845Z,20.00
2023-09-05T23:55:19.403Z,20.10
2023-09-05T23:58:23.425Z,20.10
